createdAt,value
2022-08-20T00:01:37.909Z,7.77
2022-08-20T00:05:46.027Z,6.83
2022-08-20T00:09:47.136Z,7.53
2022-08-20T00:13:51.543Z,7.27
2022-08-20T00:17:53.443Z,7.87
2022-08-20T00:21:55.723Z,9.83
2022-08-20T00:25:57.853Z,10.20
2022-08-20T00:29:58.934Z,11.50
2022-08-20T00:33:59.937Z,7.80
2022-08-20T00:38:01.347Z,7.17
2022-08-20T00:42:03.415Z,6.80
2022-08-20T00:46:14.507Z,6.67
2022-08-20T00:50:19.419Z,6.73
2022-08-20T00:54:24.498Z,8.67
2022-08-20T00:58:27.304Z,8.17
2022-08-20T01:02:31.111Z,6.73
2022-08-20T01:06:32.340Z,7.63
2022-08-20T01:10:37.105Z,6.73
2022-08-20T01:14:40.206Z,6.80
2022-08-20T01:18:42.424Z,6.70
2022-08-20T01:23:12.470Z,7.47
2022-08-20T01:27:14.419Z,6.70
2022-08-20T01:31:19.297Z,10.67
2022-08-20T01:35:22.926Z,8.00
2022-08-20T01:39:30.800Z,6.53
2022-08-20T01:43:36.973Z,7.00
2022-08-20T01:47:38.733Z,7.77
2022-08-20T01:51:38.637Z,6.20
2022-08-20T01:55:40.463Z,6.60
2022-08-20T01:59:42.698Z,7.53
2022-08-20T02:03:44.761Z,7.77
2022-08-20T02:07:46.828Z,7.33
2022-08-20T02:11:48.032Z,6.60
2022-08-20T02:15:48.974Z,8.13
2022-08-20T02:19:53.381Z,9.10
2022-08-20T02:23:55.378Z,9.27
2022-08-20T02:28:00.357Z,8.97
2022-08-20T02:32:24.519Z,11.13
2022-08-20T02:36:05.565Z,12.13
2022-08-20T02:40:09.642Z,12.03
2022-08-20T02:44:12.058Z,13.20
2022-08-20T02:48:20.399Z,15.43
2022-08-20T02:52:21.628Z,15.10
2022-08-20T02:56:22.659Z,18.17
2022-08-20T03:00:23.854Z,17.70
2022-08-20T03:04:24.953Z,18.80
2022-08-20T03:08:28.687Z,20.07
2022-08-20T03:12:29.793Z,19.00
2022-08-20T03:16:31.107Z,19.93
2022-08-20T03:20:32.637Z,21.20
2022-08-20T03:24:33.653Z,20.00
2022-08-20T03:28:35.038Z,19.33
2022-08-20T03:32:37.060Z,19.53
2022-08-20T03:36:38.065Z,18.87
2022-08-20T03:40:39.767Z,18.90
2022-08-20T03:44:40.802Z,18.50
2022-08-20T03:48:42.059Z,17.77
2022-08-20T03:52:43.173Z,16.80
2022-08-20T03:56:44.361Z,15.30
2022-08-20T04:00:48.363Z,16.73
2022-08-20T04:04:49.482Z,17.40
2022-08-20T04:08:51.002Z,16.23
2022-08-20T04:12:53.081Z,18.20
2022-08-20T04:16:54.438Z,16.80
2022-08-20T04:20:55.673Z,16.27
2022-08-20T04:24:56.659Z,15.30
2022-08-20T04:28:57.919Z,16.67
2022-08-20T04:32:59.141Z,16.90
2022-08-20T04:37:00.349Z,17.97
2022-08-20T04:41:01.462Z,22.33
2022-08-20T04:45:08.061Z,23.97
2022-08-20T04:49:09.262Z,26.80
2022-08-20T04:53:12.485Z,25.93
2022-08-20T04:57:13.489Z,33.73
2022-08-20T05:01:15.004Z,32.87
2022-08-20T05:05:16.047Z,37.10
2022-08-20T05:09:17.160Z,45.23
2022-08-20T05:13:18.787Z,40.27
2022-08-20T05:17:20.710Z,38.10
2022-08-20T05:21:21.820Z,37.87
2022-08-20T05:25:23.612Z,39.43
2022-08-20T05:29:24.724Z,36.53
2022-08-20T05:33:27.749Z,36.77
2022-08-20T05:37:30.655Z,32.77
2022-08-20T05:41:33.854Z,32.80
2022-08-20T05:45:36.869Z,30.60
2022-08-20T05:49:38.171Z,27.67
2022-08-20T05:53:39.285Z,28.90
2022-08-20T05:57:40.786Z,22.13
2022-08-20T06:01:42.543Z,23.87
2022-08-20T06:05:44.368Z,26.53
2022-08-20T06:09:45.703Z,25.53
2022-08-20T06:13:46.829Z,26.40
2022-08-20T06:17:58.158Z,25.77
2022-08-20T06:21:50.870Z,26.10
2022-08-20T06:25:52.308Z,25.37
2022-08-20T06:29:53.935Z,22.63
2022-08-20T06:33:55.245Z,22.83
2022-08-20T06:37:58.403Z,22.67
2022-08-20T06:41:59.491Z,20.17
2022-08-20T06:46:01.715Z,21.47
2022-08-20T06:50:07.258Z,21.43
2022-08-20T06:54:08.558Z,20.60
2022-08-20T06:58:32.798Z,18.33
2022-08-20T07:02:14.441Z,19.17
2022-08-20T07:06:17.453Z,19.93
2022-08-20T07:10:20.389Z,19.10
2022-08-20T07:14:21.681Z,16.97
2022-08-20T07:18:28.868Z,18.30
2022-08-20T07:22:26.634Z,17.20
2022-08-20T07:26:27.637Z,17.23
2022-08-20T07:30:56.940Z,16.37
2022-08-20T07:34:50.684Z,14.37
2022-08-20T07:38:51.914Z,13.97
2022-08-20T07:42:54.445Z,14.67
2022-08-20T07:46:57.805Z,14.43
2022-08-20T07:51:01.239Z,12.00
2022-08-20T07:55:08.786Z,10.13
2022-08-20T07:59:11.994Z,7.73
2022-08-20T08:03:13.550Z,7.90
2022-08-20T08:07:16.185Z,7.87
2022-08-20T08:11:18.740Z,7.83
2022-08-20T08:15:24.025Z,7.00
2022-08-20T08:19:27.863Z,7.07
2022-08-20T08:23:31.664Z,6.47
2022-08-20T08:27:33.714Z,6.93
2022-08-20T08:31:35.130Z,7.63
2022-08-20T08:35:42.004Z,6.70
2022-08-20T08:39:44.350Z,5.70
2022-08-20T08:43:49.227Z,5.47
2022-08-20T08:47:52.586Z,5.30
2022-08-20T08:52:04.379Z,6.40
2022-08-20T08:56:07.394Z,6.20
2022-08-20T09:00:15.812Z,7.57
2022-08-20T09:04:21.841Z,7.73
2022-08-20T09:08:27.140Z,5.87
2022-08-20T09:12:28.320Z,6.07
2022-08-20T09:16:30.052Z,3.80
2022-08-20T09:20:32.381Z,4.20
2022-08-20T09:24:33.810Z,5.00
2022-08-20T09:28:35.381Z,4.87
2022-08-20T09:32:38.174Z,5.73
2022-08-20T09:36:39.986Z,4.77
2022-08-20T09:40:41.237Z,4.67
2022-08-20T09:44:42.753Z,4.13
2022-08-20T09:48:43.835Z,3.87
2022-08-20T09:52:48.185Z,3.57
2022-08-20T09:56:51.463Z,4.57
2022-08-20T10:00:52.871Z,6.10
2022-08-20T10:04:54.235Z,4.03
2022-08-20T10:08:55.447Z,3.53
2022-08-20T10:12:56.439Z,4.63
2022-08-20T10:16:59.266Z,4.23
2022-08-20T10:21:01.405Z,4.33
2022-08-20T10:25:03.600Z,4.17
2022-08-20T10:29:04.699Z,4.70
2022-08-20T10:33:05.812Z,4.53
2022-08-20T10:37:07.456Z,4.47
2022-08-20T10:41:10.067Z,3.30
2022-08-20T10:45:13.775Z,4.10
2022-08-20T10:49:14.811Z,3.50
2022-08-20T10:53:16.813Z,3.77
2022-08-20T10:57:21.322Z,3.20
2022-08-20T11:01:32.854Z,3.10
2022-08-20T11:05:27.105Z,2.23
2022-08-20T11:09:28.323Z,2.70
2022-08-20T11:13:29.422Z,1.90
2022-08-20T11:17:34.345Z,1.80
2022-08-20T11:21:37.259Z,1.77
2022-08-20T11:25:38.371Z,2.20
2022-08-20T11:29:39.470Z,1.90
2022-08-20T11:33:42.379Z,2.10
2022-08-20T11:37:43.389Z,1.73
2022-08-20T11:41:45.830Z,1.70
2022-08-20T11:45:50.106Z,1.00
2022-08-20T11:50:00.289Z,1.00
2022-08-20T11:54:01.484Z,2.00
2022-08-20T11:58:03.999Z,1.87
2022-08-20T12:02:07.924Z,2.30
2022-08-20T12:06:08.115Z,1.60
2022-08-20T12:10:09.571Z,1.83
2022-08-20T12:14:10.719Z,2.10
2022-08-20T12:18:11.842Z,1.87
2022-08-20T12:22:20.393Z,1.30
2022-08-20T12:26:16.588Z,2.13
2022-08-20T12:30:21.005Z,1.87
2022-08-20T12:34:22.206Z,1.57
2022-08-20T12:38:23.252Z,1.93
2022-08-20T12:42:25.566Z,2.43
2022-08-20T12:46:26.580Z,3.00
2022-08-20T12:50:31.414Z,1.43
2022-08-20T12:54:31.239Z,1.73
2022-08-20T12:58:32.233Z,1.50
2022-08-20T13:02:33.219Z,2.37
2022-08-20T13:06:34.343Z,1.60
2022-08-20T13:10:39.831Z,1.73
2022-08-20T13:14:41.400Z,1.57
2022-08-20T13:18:42.517Z,1.93
2022-08-20T13:22:43.525Z,1.90
2022-08-20T13:26:45.477Z,3.07
2022-08-20T13:30:46.739Z,2.17
2022-08-20T13:34:47.867Z,2.33
2022-08-20T13:38:49.117Z,4.80
2022-08-20T13:42:51.069Z,2.33
2022-08-20T13:46:53.520Z,1.87
2022-08-20T13:50:54.568Z,2.73
2022-08-20T13:54:56.238Z,3.20
2022-08-20T13:58:57.337Z,3.53
2022-08-20T14:03:00.309Z,1.90
2022-08-20T14:07:16.231Z,1.80
2022-08-20T14:11:17.843Z,1.67
2022-08-20T14:15:19.538Z,2.57
2022-08-20T14:19:20.529Z,3.53
2022-08-20T14:23:21.946Z,2.50
2022-08-20T14:27:26.546Z,2.87
2022-08-20T14:31:26.704Z,2.73
2022-08-20T14:35:27.703Z,2.50
2022-08-20T14:39:28.817Z,2.43
2022-08-20T14:43:29.859Z,2.47
2022-08-20T14:47:34.602Z,3.23
2022-08-20T14:51:36.749Z,5.27
2022-08-20T14:55:37.858Z,3.83
2022-08-20T14:59:39.687Z,2.13
2022-08-20T15:03:40.714Z,4.17
2022-08-20T15:07:45.123Z,2.20
2022-08-20T15:11:48.518Z,2.47
2022-08-20T15:15:49.652Z,2.50
2022-08-20T15:19:51.532Z,5.83
2022-08-20T15:23:52.666Z,2.60
2022-08-20T15:27:58.318Z,2.70
2022-08-20T15:32:00.262Z,2.60
2022-08-20T15:36:01.608Z,3.43
2022-08-20T15:40:08.355Z,2.90
2022-08-20T15:44:09.461Z,4.43
2022-08-20T15:48:16.577Z,3.63
2022-08-20T15:52:18.047Z,4.33
2022-08-20T15:56:45.457Z,4.53
2022-08-20T16:00:53.329Z,5.23
2022-08-20T16:05:02.956Z,3.70
2022-08-20T16:09:10.760Z,3.97
2022-08-20T16:13:27.450Z,3.90
2022-08-20T16:17:33.412Z,4.40
2022-08-20T16:21:38.316Z,4.20
2022-08-20T16:26:07.361Z,4.40
2022-08-20T16:30:12.105Z,3.20
2022-08-20T16:34:33.540Z,3.17
2022-08-20T16:38:41.930Z,4.67
2022-08-20T16:42:47.137Z,4.13
2022-08-20T16:47:13.809Z,3.60
2022-08-20T16:51:22.868Z,3.20
2022-08-20T16:55:23.968Z,3.33
2022-08-20T16:59:26.862Z,3.30
2022-08-20T17:03:39.157Z,3.57
2022-08-20T17:07:46.212Z,2.80
2022-08-20T17:11:47.598Z,3.03
2022-08-20T17:15:58.129Z,4.33
2022-08-20T17:20:20.209Z,4.93
2022-08-20T17:24:24.829Z,3.80
2022-08-20T17:28:26.125Z,3.90
2022-08-20T17:32:28.644Z,4.77
2022-08-20T17:36:30.649Z,5.37
2022-08-20T17:40:43.110Z,6.00
2022-08-20T17:44:53.946Z,6.63
2022-08-20T17:48:58.953Z,6.93
2022-08-20T17:53:13.634Z,7.03
2022-08-20T17:57:18.137Z,7.70
2022-08-20T18:01:21.025Z,8.33
2022-08-20T18:05:22.648Z,9.67
2022-08-20T18:09:39.498Z,9.93
2022-08-20T18:14:04.130Z,8.40
2022-08-20T18:18:24.411Z,9.90
2022-08-20T18:22:31.436Z,8.40
2022-08-20T18:26:46.032Z,10.53
2022-08-20T18:30:59.938Z,9.43
2022-08-20T18:35:20.193Z,7.90
2022-08-20T18:39:31.148Z,8.77
2022-08-20T18:43:32.770Z,9.90
2022-08-20T18:47:37.667Z,10.57
2022-08-20T18:51:45.476Z,10.33
2022-08-20T18:56:05.651Z,10.53
2022-08-20T19:00:13.766Z,10.20
2022-08-20T19:04:18.706Z,9.30
2022-08-20T19:08:22.287Z,8.57
2022-08-20T19:12:30.124Z,8.97
2022-08-20T19:16:35.046Z,8.57
2022-08-20T19:20:39.906Z,9.90
2022-08-20T19:24:43.754Z,9.17
2022-08-20T19:28:48.766Z,9.43
2022-08-20T19:32:52.287Z,10.97
2022-08-20T19:37:27.684Z,14.90
2022-08-20T19:41:11.280Z,9.10
2022-08-20T19:45:19.091Z,10.03
2022-08-20T19:49:43.022Z,9.80
2022-08-20T19:53:45.748Z,10.87
2022-08-20T19:57:53.075Z,10.57
2022-08-20T20:01:58.314Z,10.33
2022-08-20T20:06:03.147Z,10.97
2022-08-20T20:10:09.549Z,10.43
2022-08-20T20:14:13.274Z,10.30
2022-08-20T20:18:14.382Z,9.33
2022-08-20T20:22:28.635Z,10.10
2022-08-20T20:26:36.237Z,10.37
2022-08-20T20:31:02.066Z,12.03
2022-08-20T20:35:05.661Z,11.70
2022-08-20T20:39:14.637Z,10.70
2022-08-20T20:43:25.293Z,11.53
2022-08-20T20:47:32.818Z,12.37
2022-08-20T20:51:41.516Z,12.33
2022-08-20T20:55:46.361Z,10.30
2022-08-20T20:59:49.746Z,14.53
2022-08-20T21:03:50.784Z,11.10
2022-08-20T21:07:55.338Z,10.37
2022-08-20T21:11:56.466Z,9.97
2022-08-20T21:15:57.481Z,9.70
2022-08-20T21:20:01.923Z,9.30
2022-08-20T21:24:04.408Z,15.00
2022-08-20T21:28:07.137Z,12.27
2022-08-20T21:32:08.734Z,12.13
2022-08-20T21:36:11.632Z,10.63
2022-08-20T21:40:13.555Z,10.08
2022-08-20T21:44:21.422Z,10.60
2022-08-20T21:48:22.964Z,11.87
2022-08-20T21:52:24.172Z,11.33
2022-08-20T21:56:28.317Z,11.90
2022-08-20T22:00:49.932Z,11.93
2022-08-20T22:04:51.172Z,11.00
2022-08-20T22:08:54.109Z,11.23
2022-08-20T22:12:55.306Z,11.63
2022-08-20T22:16:56.488Z,11.27
2022-08-20T22:20:57.694Z,11.53
2022-08-20T22:24:59.508Z,11.47
2022-08-20T22:29:01.503Z,11.40
2022-08-20T22:33:05.818Z,14.95
2022-08-20T22:37:07.438Z,12.83
2022-08-20T22:41:09.842Z,12.73
2022-08-20T22:45:14.796Z,12.67
2022-08-20T22:49:16.900Z,13.17
2022-08-20T22:53:20.225Z,11.83
2022-08-20T22:57:21.335Z,13.63
2022-08-20T23:01:22.362Z,11.93
2022-08-20T23:05:26.607Z,11.50
2022-08-20T23:09:28.393Z,14.20
2022-08-20T23:13:31.435Z,13.17
2022-08-20T23:17:33.717Z,13.90
2022-08-20T23:21:34.714Z,12.07
2022-08-20T23:25:35.738Z,13.30
2022-08-20T23:29:40.286Z,13.00
2022-08-20T23:33:44.685Z,12.87
2022-08-20T23:37:48.048Z,12.30
2022-08-20T23:41:49.362Z,14.83
2022-08-20T23:45:50.458Z,15.40
2022-08-20T23:49:51.554Z,15.50
2022-08-20T23:53:52.569Z,14.37
2022-08-20T23:57:53.661Z,13.60
